createdAt,value
2023-05-17T00:02:17.823Z,10.70
2023-05-17T00:05:08.458Z,10.60
2023-05-17T00:07:57.854Z,10.60
2023-05-17T00:10:48.600Z,10.60
2023-05-17T00:13:38.131Z,10.60
2023-05-17T00:16:27.672Z,10.50
2023-05-17T00:19:17.436Z,10.50
2023-05-17T00:22:06.792Z,10.40
2023-05-17T00:24:56.159Z,10.40
2023-05-17T00:27:46.883Z,10.40
2023-05-17T00:30:36.213Z,10.30
2023-05-17T00:33:26.135Z,10.30
2023-05-17T00:36:15.532Z,10.30
2023-05-17T00:39:05.083Z,10.30
2023-05-17T00:41:54.462Z,10.20
2023-05-17T00:44:45.151Z,10.20
2023-05-17T00:47:34.544Z,10.20
2023-05-17T00:50:24.803Z,10.10
2023-05-17T00:53:16.244Z,10.20
2023-05-17T00:56:06.856Z,10.10
2023-05-17T00:58:56.606Z,10.10
2023-05-17T01:01:47.411Z,10.10
2023-05-17T01:04:37.694Z,10.00
2023-05-17T01:07:27.176Z,10.00
2023-05-17T01:10:16.805Z,10.00
2023-05-17T01:13:11.880Z,10.00
2023-05-17T01:16:18.285Z,10.00
2023-05-17T01:19:54.853Z,10.00
2023-05-17T01:22:53.042Z,10.00
2023-05-17T01:25:55.552Z,10.00
2023-05-17T01:28:50.216Z,10.00
2023-05-17T01:31:40.919Z,10.00
2023-05-17T01:34:31.170Z,10.00
2023-05-17T01:37:20.569Z,10.00
2023-05-17T01:40:12.134Z,10.00
2023-05-17T01:43:11.792Z,10.00
2023-05-17T01:46:14.593Z,10.00
2023-05-17T01:49:17.823Z,10.00
2023-05-17T01:52:12.884Z,10.00
2023-05-17T01:55:10.781Z,10.00
2023-05-17T01:58:03.323Z,9.90
2023-05-17T02:00:57.176Z,9.90
2023-05-17T02:03:50.259Z,9.90
2023-05-17T02:06:39.562Z,9.90
2023-05-17T02:09:28.987Z,9.80
2023-05-17T02:12:18.377Z,9.80
2023-05-17T02:15:11.331Z,9.80
2023-05-17T02:18:02.028Z,9.80
2023-05-17T02:20:52.754Z,9.80
2023-05-17T02:23:42.065Z,9.70
2023-05-17T02:26:32.235Z,9.70
2023-05-17T02:29:21.563Z,9.70
2023-05-17T02:32:11.100Z,9.70
2023-05-17T02:35:00.837Z,9.70
2023-05-17T02:37:52.059Z,9.70
2023-05-17T02:40:43.028Z,9.70
2023-05-17T02:43:32.392Z,9.60
2023-05-17T02:46:21.771Z,9.60
2023-05-17T02:49:11.109Z,9.60
2023-05-17T02:52:00.835Z,9.60
2023-05-17T02:54:52.624Z,9.60
2023-05-17T02:57:42.047Z,9.60
2023-05-17T03:00:31.822Z,9.60
2023-05-17T03:03:21.807Z,9.60
2023-05-17T03:06:11.517Z,9.50
2023-05-17T03:09:00.886Z,9.50
2023-05-17T03:11:51.772Z,9.50
2023-05-17T03:14:45.806Z,9.50
2023-05-17T03:17:35.281Z,9.40
2023-05-17T03:20:25.253Z,9.40
2023-05-17T03:23:14.632Z,9.40
2023-05-17T03:26:13.212Z,9.30
2023-05-17T03:29:10.067Z,9.30
2023-05-17T03:32:00.261Z,9.30
2023-05-17T03:34:49.735Z,9.30
2023-05-17T03:37:41.111Z,9.30
2023-05-17T03:40:31.275Z,9.20
2023-05-17T03:43:21.932Z,9.20
2023-05-17T03:46:14.548Z,9.30
2023-05-17T03:49:04.256Z,9.30
2023-05-17T03:51:55.722Z,9.30
2023-05-17T03:54:46.846Z,9.40
2023-05-17T03:57:37.461Z,9.40
2023-05-17T04:00:26.803Z,9.50
2023-05-17T04:03:22.487Z,9.50
2023-05-17T04:06:12.057Z,9.60
2023-05-17T04:09:02.115Z,9.70
2023-05-17T04:11:51.750Z,9.80
2023-05-17T04:14:41.400Z,9.90
2023-05-17T04:17:31.240Z,10.00
2023-05-17T04:20:22.175Z,10.00
2023-05-17T04:23:12.329Z,10.10
2023-05-17T04:26:01.754Z,10.20
2023-05-17T04:28:52.609Z,10.30
2023-05-17T04:31:42.368Z,10.50
2023-05-17T04:34:32.710Z,10.60
2023-05-17T04:37:24.601Z,10.90
2023-05-17T04:40:17.450Z,11.10
2023-05-17T04:43:08.297Z,11.30
2023-05-17T04:45:58.762Z,11.50
2023-05-17T04:48:48.400Z,11.60
2023-05-17T04:51:38.177Z,11.80
2023-05-17T04:54:29.816Z,11.90
2023-05-17T04:57:19.349Z,12.00
2023-05-17T05:00:23.942Z,12.10
2023-05-17T05:03:21.486Z,12.20
2023-05-17T05:06:11.550Z,12.30
2023-05-17T05:09:01.358Z,12.40
2023-05-17T05:11:52.218Z,12.50
2023-05-17T05:14:41.917Z,12.60
2023-05-17T05:17:32.368Z,12.70
2023-05-17T05:20:22.442Z,12.80
2023-05-17T05:23:12.078Z,12.90
2023-05-17T05:26:01.775Z,13.20
2023-05-17T05:28:52.544Z,13.50
2023-05-17T05:31:41.933Z,13.80
2023-05-17T05:34:31.779Z,14.10
2023-05-17T05:37:22.063Z,14.30
2023-05-17T05:40:12.888Z,14.60
2023-05-17T05:43:03.818Z,14.80
2023-05-17T05:45:55.363Z,15.00
2023-05-17T05:48:45.239Z,15.20
2023-05-17T05:51:36.302Z,15.30
2023-05-17T05:54:25.694Z,15.40
2023-05-17T05:57:15.209Z,15.50
2023-05-17T06:00:06.407Z,15.60
2023-05-17T06:03:17.762Z,15.70
2023-05-17T06:06:08.693Z,15.70
2023-05-17T06:08:59.788Z,15.70
2023-05-17T06:11:49.418Z,15.70
2023-05-17T06:14:38.885Z,15.70
2023-05-17T06:17:28.368Z,15.70
2023-05-17T06:20:19.399Z,15.70
2023-05-17T06:23:08.767Z,15.70
2023-05-17T06:25:58.236Z,15.60
2023-05-17T06:28:47.560Z,15.60
2023-05-17T06:31:37.397Z,15.50
2023-05-17T06:34:27.436Z,15.40
2023-05-17T06:37:18.380Z,15.40
2023-05-17T06:40:16.720Z,15.30
2023-05-17T06:43:07.013Z,15.30
2023-05-17T06:45:56.503Z,15.20
2023-05-17T06:48:47.405Z,15.20
2023-05-17T06:51:38.945Z,15.20
2023-05-17T06:54:29.787Z,15.30
2023-05-17T06:57:19.325Z,15.30
2023-05-17T07:00:11.358Z,15.30
2023-05-17T07:03:00.959Z,15.30
2023-05-17T07:05:58.637Z,15.30
2023-05-17T07:08:48.594Z,15.30
2023-05-17T07:11:39.560Z,15.30
2023-05-17T07:14:29.337Z,15.40
2023-05-17T07:17:18.738Z,15.50
2023-05-17T07:20:10.347Z,15.70
2023-05-17T07:23:00.038Z,15.90
2023-05-17T07:25:54.243Z,16.20
2023-05-17T07:28:45.099Z,16.50
2023-05-17T07:31:34.661Z,16.70
2023-05-17T07:34:24.332Z,17.10
2023-05-17T07:37:13.758Z,17.50
2023-05-17T07:40:05.211Z,18.00
2023-05-17T07:42:54.540Z,18.50
2023-05-17T07:45:47.503Z,18.90
2023-05-17T07:48:37.062Z,19.50
2023-05-17T07:51:26.631Z,20.20
2023-05-17T07:54:25.197Z,20.90
2023-05-17T07:57:14.563Z,21.70
2023-05-17T08:00:04.240Z,22.80
2023-05-17T08:03:17.179Z,23.80
2023-05-17T08:06:07.441Z,25.00
2023-05-17T08:08:56.859Z,26.00
2023-05-17T08:11:46.882Z,26.60
2023-05-17T08:14:36.574Z,27.00
2023-05-17T08:17:26.289Z,27.10
2023-05-17T08:20:17.546Z,26.90
2023-05-17T08:23:07.386Z,26.50
2023-05-17T08:25:56.703Z,26.10
2023-05-17T08:28:46.255Z,25.70
2023-05-17T08:31:35.607Z,25.50
2023-05-17T08:34:25.109Z,25.30
2023-05-17T08:37:16.040Z,25.00
2023-05-17T08:40:08.111Z,24.60
2023-05-17T08:42:58.304Z,23.90
2023-05-17T08:45:49.816Z,23.60
2023-05-17T08:48:42.088Z,23.20
2023-05-17T08:51:32.682Z,22.80
2023-05-17T08:54:23.574Z,22.40
2023-05-17T08:57:14.125Z,22.00
2023-05-17T09:00:12.477Z,21.60
2023-05-17T09:03:02.235Z,21.40
2023-05-17T09:05:53.830Z,21.20
2023-05-17T09:08:44.416Z,21.00
2023-05-17T09:11:35.154Z,20.80
2023-05-17T09:14:24.560Z,20.70
2023-05-17T09:17:17.046Z,20.60
2023-05-17T09:20:08.559Z,20.60
2023-05-17T09:22:58.756Z,20.60
2023-05-17T09:25:49.379Z,20.60
2023-05-17T09:28:42.493Z,20.60
2023-05-17T09:31:33.336Z,20.50
2023-05-17T09:34:25.985Z,20.30
2023-05-17T09:37:17.190Z,20.20
2023-05-17T09:40:09.554Z,20.20
2023-05-17T09:43:00.712Z,20.20
2023-05-17T09:45:57.968Z,20.30
2023-05-17T09:48:47.802Z,20.40
2023-05-17T09:51:39.810Z,20.50
2023-05-17T09:54:33.476Z,20.50
2023-05-17T09:57:23.811Z,20.20
2023-05-17T10:00:14.962Z,20.10
2023-05-17T10:03:07.237Z,20.20
2023-05-17T10:05:56.804Z,20.40
2023-05-17T10:08:48.646Z,20.80
2023-05-17T10:11:40.507Z,21.40
2023-05-17T10:14:33.074Z,22.00
2023-05-17T10:17:23.722Z,22.50
2023-05-17T10:20:17.477Z,22.70
2023-05-17T10:23:09.587Z,22.80
2023-05-17T10:26:00.812Z,22.80
2023-05-17T10:28:52.785Z,22.90
2023-05-17T10:31:44.750Z,23.20
2023-05-17T10:34:36.939Z,23.60
2023-05-17T10:37:30.380Z,23.90
2023-05-17T10:40:20.242Z,24.20
2023-05-17T10:43:11.691Z,24.40
2023-05-17T10:46:02.105Z,24.50
2023-05-17T10:48:53.128Z,24.50
2023-05-17T10:51:42.498Z,24.60
2023-05-17T10:54:43.119Z,24.90
2023-05-17T10:57:50.799Z,25.10
2023-05-17T11:00:41.734Z,25.30
2023-05-17T11:03:34.580Z,25.40
2023-05-17T11:06:25.529Z,25.50
2023-05-17T11:09:18.416Z,25.50
2023-05-17T11:12:11.046Z,25.60
2023-05-17T11:15:00.589Z,25.70
2023-05-17T11:17:54.028Z,25.70
2023-05-17T11:20:43.727Z,25.70
2023-05-17T11:23:35.537Z,25.50
2023-05-17T11:26:38.450Z,25.30
2023-05-17T11:29:31.985Z,25.10
2023-05-17T11:32:29.203Z,24.90
2023-05-17T11:35:19.853Z,24.70
2023-05-17T11:38:17.747Z,24.50
2023-05-17T11:41:26.873Z,24.30
2023-05-17T11:44:19.325Z,24.10
2023-05-17T11:47:12.089Z,24.00
2023-05-17T11:50:05.236Z,23.90
2023-05-17T11:52:58.335Z,23.70
2023-05-17T11:55:51.681Z,23.60
2023-05-17T11:58:42.719Z,23.50
2023-05-17T12:01:46.194Z,23.30
2023-05-17T12:04:39.542Z,23.10
2023-05-17T12:07:29.705Z,23.00
2023-05-17T12:10:19.265Z,22.80
2023-05-17T12:13:08.661Z,22.80
2023-05-17T12:15:59.577Z,22.80
2023-05-17T12:18:52.084Z,22.80
2023-05-17T12:21:42.997Z,22.80
2023-05-17T12:24:39.254Z,22.90
2023-05-17T12:27:28.817Z,22.90
2023-05-17T12:30:19.362Z,22.90
2023-05-17T12:33:09.700Z,22.80
2023-05-17T12:35:59.546Z,22.80
2023-05-17T12:38:50.656Z,22.70
2023-05-17T12:41:41.157Z,22.70
2023-05-17T12:44:30.510Z,22.60
2023-05-17T12:47:19.952Z,22.60
2023-05-17T12:50:10.158Z,22.50
2023-05-17T12:52:59.584Z,22.50
2023-05-17T12:55:50.852Z,22.50
2023-05-17T12:58:40.377Z,22.60
2023-05-17T13:01:35.755Z,22.60
2023-05-17T13:04:33.017Z,22.70
2023-05-17T13:07:24.866Z,22.70
2023-05-17T13:10:32.335Z,22.70
2023-05-17T13:13:23.216Z,22.60
2023-05-17T13:16:12.688Z,22.50
2023-05-17T13:19:02.226Z,22.40
2023-05-17T13:21:51.728Z,22.20
2023-05-17T13:24:41.666Z,22.10
2023-05-17T13:27:31.063Z,22.10
2023-05-17T13:30:21.971Z,22.00
2023-05-17T13:33:11.573Z,22.00
2023-05-17T13:36:01.118Z,21.90
2023-05-17T13:38:50.614Z,21.90
2023-05-17T13:41:40.550Z,21.90
2023-05-17T13:44:30.070Z,21.90
2023-05-17T13:47:21.201Z,22.00
2023-05-17T13:50:12.442Z,21.90
2023-05-17T13:53:03.012Z,21.90
2023-05-17T13:55:52.547Z,22.00
2023-05-17T13:58:42.051Z,22.00
2023-05-17T14:01:31.565Z,22.10
2023-05-17T14:04:22.766Z,22.10
2023-05-17T14:07:12.150Z,22.30
2023-05-17T14:10:02.175Z,22.30
2023-05-17T14:12:51.623Z,22.20
2023-05-17T14:15:41.148Z,22.20
2023-05-17T14:18:31.454Z,22.10
2023-05-17T14:21:22.352Z,22.00
2023-05-17T14:24:11.725Z,22.00
2023-05-17T14:27:02.553Z,21.90
2023-05-17T14:29:51.993Z,21.90
2023-05-17T14:32:41.436Z,21.90
2023-05-17T14:35:31.330Z,21.90
2023-05-17T14:38:23.209Z,21.80
2023-05-17T14:41:12.551Z,21.70
2023-05-17T14:44:01.896Z,21.60
2023-05-17T14:46:51.294Z,21.50
2023-05-17T14:49:40.676Z,21.30
2023-05-17T14:52:30.595Z,21.20
2023-05-17T14:55:21.368Z,21.10
2023-05-17T14:58:13.112Z,21.00
2023-05-17T15:01:05.097Z,21.00
2023-05-17T15:03:55.678Z,20.90
2023-05-17T15:06:45.561Z,20.80
2023-05-17T15:09:41.591Z,20.90
2023-05-17T15:12:33.013Z,20.80
2023-05-17T15:15:22.627Z,20.80
2023-05-17T15:18:13.684Z,20.80
2023-05-17T15:21:03.764Z,20.70
2023-05-17T15:23:53.171Z,20.70
2023-05-17T15:26:43.069Z,20.60
2023-05-17T15:29:33.852Z,20.60
2023-05-17T15:32:23.247Z,20.50
2023-05-17T15:35:12.699Z,20.40
2023-05-17T15:38:06.784Z,20.30
2023-05-17T15:41:04.995Z,20.30
2023-05-17T15:43:54.764Z,20.20
2023-05-17T15:46:45.596Z,20.10
2023-05-17T15:49:35.319Z,20.10
2023-05-17T15:52:24.826Z,20.00
2023-05-17T15:55:14.219Z,20.00
2023-05-17T15:58:07.115Z,19.90
2023-05-17T16:00:56.798Z,19.90
2023-05-17T16:03:47.635Z,19.80
2023-05-17T16:06:37.225Z,19.80
2023-05-17T16:09:26.866Z,19.70
2023-05-17T16:12:16.279Z,19.70
2023-05-17T16:15:06.657Z,19.70
2023-05-17T16:17:56.200Z,19.70
2023-05-17T16:20:47.081Z,19.60
2023-05-17T16:23:36.696Z,19.60
2023-05-17T16:26:26.603Z,19.70
2023-05-17T16:29:16.900Z,19.60
2023-05-17T16:32:07.718Z,19.60
2023-05-17T16:34:57.165Z,19.60
2023-05-17T16:37:47.920Z,19.60
2023-05-17T16:40:37.300Z,19.60
2023-05-17T16:43:27.021Z,19.60
2023-05-17T16:46:16.441Z,19.60
2023-05-17T16:49:07.706Z,19.60
2023-05-17T16:51:57.090Z,19.70
2023-05-17T16:54:50.246Z,19.70
2023-05-17T16:57:47.269Z,19.70
2023-05-17T17:00:37.216Z,19.70
2023-05-17T17:03:26.775Z,19.70
2023-05-17T17:06:16.235Z,19.70
2023-05-17T17:09:08.309Z,19.60
2023-05-17T17:12:00.173Z,19.60
2023-05-17T17:14:52.061Z,19.50
2023-05-17T17:17:42.019Z,19.50
2023-05-17T17:20:31.493Z,19.50
2023-05-17T17:23:21.176Z,19.40
2023-05-17T17:26:11.290Z,19.40
2023-05-17T17:29:03.894Z,19.40
2023-05-17T17:31:53.326Z,19.30
2023-05-17T17:34:42.793Z,19.30
2023-05-17T17:37:32.113Z,19.30
2023-05-17T17:40:21.920Z,19.20
2023-05-17T17:43:11.359Z,19.20
2023-05-17T17:46:02.186Z,19.20
2023-05-17T17:48:53.825Z,19.20
2023-05-17T17:51:44.499Z,19.10
2023-05-17T17:54:33.898Z,19.10
2023-05-17T17:57:23.335Z,19.00
2023-05-17T18:00:16.075Z,18.90
2023-05-17T18:03:07.098Z,18.90
2023-05-17T18:05:57.776Z,18.80
2023-05-17T18:08:47.405Z,18.70
2023-05-17T18:11:36.831Z,18.60
2023-05-17T18:14:26.687Z,18.50
2023-05-17T18:17:16.038Z,18.40
2023-05-17T18:20:08.826Z,18.30
2023-05-17T18:22:58.333Z,18.30
2023-05-17T18:25:50.504Z,18.20
2023-05-17T18:28:42.710Z,18.10
2023-05-17T18:31:32.480Z,18.00
2023-05-17T18:34:21.896Z,17.90
2023-05-17T18:37:12.637Z,17.80
2023-05-17T18:40:02.415Z,17.70
2023-05-17T18:42:52.011Z,17.60
2023-05-17T18:45:41.405Z,17.50
2023-05-17T18:48:30.826Z,17.40
2023-05-17T18:51:21.041Z,17.30
2023-05-17T18:54:11.817Z,17.20
2023-05-17T18:57:01.152Z,17.10
2023-05-17T18:59:50.478Z,17.00
2023-05-17T19:02:40.689Z,16.90
2023-05-17T19:05:30.185Z,16.80
2023-05-17T19:08:19.544Z,16.70
2023-05-17T19:11:10.325Z,16.60
2023-05-17T19:13:59.752Z,16.50
2023-05-17T19:16:50.175Z,16.40
2023-05-17T19:19:39.580Z,16.40
2023-05-17T19:22:28.947Z,16.30
2023-05-17T19:25:20.321Z,16.20
2023-05-17T19:28:11.710Z,16.10
2023-05-17T19:31:01.238Z,16.10
2023-05-17T19:33:51.126Z,16.00
2023-05-17T19:36:40.607Z,16.00
2023-05-17T19:39:29.988Z,15.90
2023-05-17T19:42:19.359Z,15.90
2023-05-17T19:45:11.844Z,15.80
2023-05-17T19:48:02.208Z,15.80
2023-05-17T19:50:52.913Z,15.70
2023-05-17T19:53:52.707Z,15.70
2023-05-17T19:56:43.078Z,15.60
2023-05-17T19:59:32.413Z,15.60
2023-05-17T20:02:23.309Z,15.60
2023-05-17T20:05:12.688Z,15.50
2023-05-17T20:08:02.672Z,15.50
2023-05-17T20:10:52.254Z,15.40
2023-05-17T20:13:41.681Z,15.40
2023-05-17T20:16:31.236Z,15.30
2023-05-17T20:19:23.049Z,15.30
2023-05-17T20:22:13.117Z,15.30
2023-05-17T20:25:02.594Z,15.20
2023-05-17T20:27:52.490Z,15.20
2023-05-17T20:30:45.214Z,15.20
2023-05-17T20:33:34.646Z,15.10
2023-05-17T20:36:26.341Z,15.10
2023-05-17T20:39:15.776Z,15.10
2023-05-17T20:42:05.380Z,15.00
2023-05-17T20:44:54.864Z,15.00
2023-05-17T20:47:44.414Z,14.90
2023-05-17T20:50:33.761Z,14.90
2023-05-17T20:53:24.456Z,14.90
2023-05-17T20:56:14.454Z,14.80
2023-05-17T20:59:04.015Z,14.80
2023-05-17T21:01:53.744Z,14.70
2023-05-17T21:04:43.254Z,14.70
2023-05-17T21:07:32.746Z,14.70
2023-05-17T21:10:24.140Z,14.60
2023-05-17T21:13:14.704Z,14.60
2023-05-17T21:16:04.442Z,14.50
2023-05-17T21:18:53.983Z,14.50
2023-05-17T21:21:43.405Z,14.10
2023-05-17T21:24:32.729Z,14.20
2023-05-17T21:27:23.504Z,14.20
2023-05-17T21:30:13.615Z,14.30
2023-05-17T21:33:03.761Z,14.30
2023-05-17T21:35:53.136Z,14.30
2023-05-17T21:38:42.956Z,14.20
2023-05-17T21:41:32.506Z,14.20
2023-05-17T21:44:23.285Z,14.20
2023-05-17T21:47:12.630Z,14.20
2023-05-17T21:50:01.994Z,14.10
2023-05-17T21:52:51.317Z,14.10
2023-05-17T21:55:51.416Z,14.00
2023-05-17T21:58:50.087Z,14.00
2023-05-17T22:01:40.863Z,13.90
2023-05-17T22:04:30.222Z,13.50
2023-05-17T22:07:19.580Z,13.60
2023-05-17T22:10:10.332Z,13.60
2023-05-17T22:13:02.001Z,13.70
2023-05-17T22:15:51.596Z,13.70
2023-05-17T22:18:42.443Z,13.70
2023-05-17T22:21:32.281Z,13.70
2023-05-17T22:24:21.616Z,13.60
2023-05-17T22:27:11.004Z,13.60
2023-05-17T22:30:00.756Z,13.50
2023-05-17T22:32:51.968Z,13.50
2023-05-17T22:35:42.692Z,13.50
2023-05-17T22:38:32.077Z,13.40
2023-05-17T22:41:21.683Z,13.40
2023-05-17T22:44:11.239Z,13.40
2023-05-17T22:47:02.465Z,13.40
2023-05-17T22:49:52.562Z,13.30
2023-05-17T22:52:46.435Z,13.20
2023-05-17T22:55:35.953Z,13.20
2023-05-17T22:58:25.380Z,13.20
2023-05-17T23:01:14.765Z,13.20
2023-05-17T23:04:04.234Z,13.10
2023-05-17T23:06:54.931Z,13.10
2023-05-17T23:09:45.841Z,13.00
2023-05-17T23:12:36.463Z,13.00
2023-05-17T23:15:26.007Z,13.00
2023-05-17T23:18:16.100Z,13.00
2023-05-17T23:21:05.535Z,13.00
2023-05-17T23:23:55.597Z,12.90
2023-05-17T23:26:47.592Z,12.90
2023-05-17T23:29:37.004Z,12.90
2023-05-17T23:32:26.434Z,12.80
2023-05-17T23:35:16.181Z,12.80
2023-05-17T23:38:07.157Z,12.80
2023-05-17T23:40:58.262Z,12.80
2023-05-17T23:43:49.596Z,12.70
2023-05-17T23:46:39.431Z,12.70
2023-05-17T23:49:28.833Z,12.70
2023-05-17T23:52:19.093Z,12.60
2023-05-17T23:55:09.831Z,12.60
2023-05-17T23:57:59.134Z,12.60
